Time;durP1;ratioP1;P1;durP2;ratioP2;P2;SDS_P1;SDS_P2;PMS_P1;PMS_P2;Temp;Humidity;BMP_temperature;BMP_pressure;BME280_temperature;BME280_humidity;BME280_pressure;Samples;Min_cycle;Max_cycle;Signal;HPM_P1;HPM_P2
2022/08/13 00:00:09;;;;;;;6.68;3.60;;;22.30;95.30;;;;;;3061362;19;20321;-72
2022/08/13 00:01:16;;;;;;;6.90;3.22;;;22.20;95.10;;;;;;3061842;19;20014;-71
2022/08/13 00:02:17;;;;;;;8.98;3.60;;;22.30;95.40;;;;;;3061916;19;20007;-70
2022/08/13 00:03:21;;;;;;;3.92;3.08;;;22.20;95.40;;;;;;3061250;19;20358;-71
2022/08/13 00:04:26;;;;;;;5.03;3.33;;;22.10;95.40;;;;;;3060838;19;20006;-71
2022/08/13 00:05:28;;;;;;;6.65;3.40;;;22.20;95.50;;;;;;3061013;19;20077;-72
2022/08/13 00:07:49;;;;;;;5.05;3.30;;;22.10;95.60;;;;;;3061112;19;20446;-71
2022/08/13 00:08:51;;;;;;;7.35;3.22;;;22.10;95.60;;;;;;3060774;19;20023;-72
2022/08/13 00:09:56;;;;;;;4.75;3.08;;;22.00;95.60;;;;;;3060748;19;20003;-71
2022/08/13 00:10:57;;;;;;;5.75;3.42;;;22.00;95.70;;;;;;3060304;19;20011;-72
2022/08/13 00:13:18;;;;;;;5.43;3.55;;;22.00;95.70;;;;;;3060571;19;20082;-71
2022/08/13 00:14:22;;;;;;;6.70;3.80;;;21.90;95.90;;;;;;3060595;19;20054;-71
2022/08/13 00:15:31;;;;;;;5.35;3.80;;;22.10;96.00;;;;;;3060346;19;20377;-71
2022/08/13 00:16:37;;;;;;;5.82;3.67;;;21.80;96.10;;;;;;3060495;19;20002;-71
2022/08/13 00:17:41;;;;;;;8.50;3.42;;;21.90;96.10;;;;;;3060424;19;20550;-71
2022/08/13 00:18:43;;;;;;;4.90;3.30;;;22.00;96.20;;;;;;3059238;19;20551;-71
2022/08/13 00:19:49;;;;;;;5.40;4.10;;;21.90;96.30;;;;;;3060929;19;20006;-71
2022/08/13 00:20:55;;;;;;;9.90;4.07;;;22.00;96.40;;;;;;3061818;19;20006;-71
2022/08/13 00:21:57;;;;;;;6.22;3.95;;;21.90;96.40;;;;;;3060476;19;20011;-71
2022/08/13 00:23:01;;;;;;;5.90;3.70;;;21.80;96.40;;;;;;3060459;19;20124;-71
2022/08/13 00:24:04;;;;;;;6.57;3.65;;;22.00;96.50;;;;;;3060338;19;20544;-71
2022/08/13 00:25:10;;;;;;;5.13;3.80;;;21.90;96.40;;;;;;3059660;19;20029;-71
2022/08/13 00:26:12;;;;;;;5.57;4.18;;;21.90;96.50;;;;;;3060417;19;20006;-71
2022/08/13 00:27:17;;;;;;;5.80;3.53;;;21.80;96.50;;;;;;3060203;19;20013;-71
2022/08/13 00:28:20;;;;;;;5.72;3.70;;;21.80;96.50;;;;;;3060510;19;20007;-71
2022/08/13 00:29:25;;;;;;;6.43;3.67;;;21.70;96.60;;;;;;3060105;19;20006;-71
2022/08/13 00:30:30;;;;;;;8.85;4.00;;;21.90;96.60;;;;;;3060318;19;20524;-71
2022/08/13 00:31:37;;;;;;;7.28;3.78;;;21.90;96.70;;;;;;3059420;19;20479;-71
2022/08/13 00:32:39;;;;;;;8.23;4.22;;;21.90;96.80;;;;;;3059855;19;20011;-71
2022/08/13 00:33:43;;;;;;;6.25;4.00;;;21.80;96.80;;;;;;3060279;19;20013;-71
2022/08/13 00:34:49;;;;;;;7.63;4.20;;;21.60;96.80;;;;;;3060510;19;20013;-71
2022/08/13 00:35:55;;;;;;;6.45;3.90;;;21.70;96.90;;;;;;3060265;19;20014;-71
2022/08/13 00:36:57;;;;;;;5.63;3.80;;;21.60;97.00;;;;;;3060148;19;20014;-70
2022/08/13 00:38:01;;;;;;;6.82;4.25;;;21.50;96.90;;;;;;3059860;19;20015;-71
2022/08/13 00:39:04;;;;;;;6.65;4.13;;;21.50;97.00;;;;;;3060229;19;20035;-71
2022/08/13 00:40:09;;;;;;;4.30;3.67;;;21.60;97.10;;;;;;3060102;19;20011;-71
2022/08/13 00:41:37;;;;;;;7.00;3.70;;;21.50;96.90;;;;;;3060076;19;20027;-71
2022/08/13 00:42:36;;;;;;;7.05;4.13;;;21.50;97.20;;;;;;3059812;19;20018;-70
2022/08/13 00:43:38;;;;;;;4.22;3.70;;;21.50;97.20;;;;;;3060197;19;20011;-71
2022/08/13 00:44:42;;;;;;;5.63;3.97;;;21.50;97.20;;;;;;3059983;19;20010;-71
2022/08/13 00:45:44;;;;;;;7.03;3.92;;;21.40;97.20;;;;;;3060058;19;20002;-70
2022/08/13 00:48:41;;;;;;;6.13;4.32;;;21.40;97.20;;;;;;3059948;19;20010;-70
2022/08/13 00:49:30;;;;;;;7.90;4.10;;;21.30;97.10;;;;;;3060316;19;20081;-71
2022/08/13 00:50:32;;;;;;;7.65;4.22;;;21.40;97.20;;;;;;3059780;19;20010;-70
2022/08/13 00:51:38;;;;;;;7.47;4.28;;;21.40;97.30;;;;;;3060112;19;20003;-70
2022/08/13 00:52:40;;;;;;;8.65;3.90;;;21.30;97.30;;;;;;3059785;19;20018;-70
2022/08/13 00:53:46;;;;;;;6.63;4.40;;;21.40;97.30;;;;;;3059755;19;19999;-70
2022/08/13 00:54:49;;;;;;;8.75;4.40;;;21.30;97.30;;;;;;3059692;19;20032;-71
2022/08/13 00:55:55;;;;;;;6.38;3.88;;;21.30;97.30;;;;;;3059109;19;20017;-71
2022/08/13 00:56:57;;;;;;;6.30;3.92;;;21.30;97.40;;;;;;3059850;19;20026;-70
2022/08/13 00:58:01;;;;;;;10.85;4.93;;;21.20;97.40;;;;;;3059946;19;20028;-70
2022/08/13 00:59:09;;;;;;;7.85;4.20;;;21.40;97.40;;;;;;3059880;19;20367;-70
2022/08/13 01:00:16;;;;;;;7.20;4.30;;;21.20;97.50;;;;;;3059811;19;20020;-70
2022/08/13 01:01:18;;;;;;;6.57;3.97;;;21.30;97.40;;;;;;3059956;19;20089;-70
2022/08/13 01:02:24;;;;;;;;;;;21.30;97.40;;;;;;3060495;19;20007;-69
2022/08/13 01:03:27;;;;;;;5.70;4.05;;;21.40;97.70;;;;;;3059674;19;19926;-70
2022/08/13 01:04:32;;;;;;;7.88;4.63;;;21.40;97.60;;;;;;3059692;19;20384;-70
2022/08/13 01:05:34;;;;;;;8.35;4.15;;;21.30;97.60;;;;;;3059780;19;20357;-70
2022/08/13 01:06:38;;;;;;;5.35;4.15;;;21.10;97.50;;;;;;3059755;19;20002;-70
2022/08/13 01:07:41;;;;;;;6.50;4.40;;;21.20;97.50;;;;;;3059705;19;20372;-71
2022/08/13 01:08:46;;;;;;;5.28;4.07;;;21.20;97.50;;;;;;3059767;19;20065;-71
2022/08/13 01:09:47;;;;;;;7.20;4.35;;;21.30;97.50;;;;;;3059721;19;20011;-71
2022/08/13 01:10:56;;;;;;;6.05;4.30;;;21.20;97.50;;;;;;3059822;19;20074;-70
2022/08/13 01:11:59;;;;;;;6.47;4.13;;;21.10;97.50;;;;;;3059346;19;20025;-72
2022/08/13 01:13:09;;;;;;;7.43;4.40;;;21.00;97.50;;;;;;3059113;19;20014;-71
2022/08/13 01:14:10;;;;;;;8.18;4.22;;;21.20;97.50;;;;;;3059080;19;20053;-71
2022/08/13 01:15:14;;;;;;;;;;;21.30;97.60;;;;;;3060218;19;19999;-71
2022/08/13 01:16:15;;;;;;;5.10;3.97;;;20.90;97.70;;;;;;3059719;19;19914;-71
2022/08/13 01:17:23;;;;;;;7.63;4.45;;;20.90;97.50;;;;;;3059461;19;20006;-71
2022/08/13 01:18:27;;;;;;;6.05;4.35;;;21.10;97.70;;;;;;3059356;19;20019;-71
2022/08/13 01:19:34;;;;;;;7.13;4.38;;;20.90;97.60;;;;;;3059462;19;20485;-71
2022/08/13 01:20:44;;;;;;;5.70;4.50;;;21.10;97.40;;;;;;3061210;19;20480;-71
2022/08/13 01:21:53;;;;;;;5.72;4.32;;;21.10;97.50;;;;;;3059354;19;20365;-71
2022/08/13 01:22:55;;;;;;;7.72;4.13;;;20.90;97.40;;;;;;3059646;19;20014;-71
2022/08/13 01:23:59;;;;;;;;;;;21.00;97.40;;;;;;3060220;19;20074;-71
2022/08/13 01:25:01;;;;;;;5.90;4.40;;;20.80;97.60;;;;;;3058962;19;19970;-71
2022/08/13 01:26:05;;;;;;;;;;;20.80;97.50;;;;;;3059730;19;20078;-71
2022/08/13 01:27:09;;;;;;;6.32;4.30;;;20.70;97.60;;;;;;3059556;19;19927;-71
2022/08/13 01:28:16;;;;;;;5.60;4.07;;;20.90;97.60;;;;;;3059405;19;20010;-71
2022/08/13 01:29:18;;;;;;;4.68;4.05;;;20.90;97.70;;;;;;3059263;19;20006;-71
2022/08/13 01:30:25;;;;;;;6.15;3.92;;;20.90;97.60;;;;;;3059364;19;20028;-71
2022/08/13 01:31:27;;;;;;;5.75;4.38;;;20.90;97.60;;;;;;3059390;19;20663;-71
2022/08/13 01:32:31;;;;;;;5.47;4.20;;;20.70;97.40;;;;;;3059587;19;20070;-71
2022/08/13 01:33:35;;;;;;;7.57;4.15;;;20.80;97.30;;;;;;3059406;19;20476;-71
2022/08/13 01:34:39;;;;;;;8.80;4.22;;;20.80;97.20;;;;;;3059384;19;20010;-71
2022/08/13 01:35:41;;;;;;;6.90;4.00;;;20.80;97.20;;;;;;3059515;19;20027;-71
2022/08/13 01:36:46;;;;;;;7.38;3.70;;;20.80;97.40;;;;;;3059612;19;20018;-71
2022/08/13 01:37:53;;;;;;;6.13;4.28;;;20.80;97.20;;;;;;3059372;19;20027;-71
2022/08/13 01:39:01;;;;;;;7.07;3.95;;;20.80;97.10;;;;;;3058689;19;20010;-71
2022/08/13 01:40:05;;;;;;;8.13;4.00;;;20.80;97.20;;;;;;3059280;19;20006;-71
2022/08/13 01:41:10;;;;;;;5.55;3.67;;;20.80;96.80;;;;;;3059334;19;20015;-71
2022/08/13 01:42:20;;;;;;;8.80;4.32;;;20.80;96.80;;;;;;3059077;19;20018;-71
2022/08/13 01:43:28;;;;;;;6.68;4.15;;;20.80;96.80;;;;;;3059318;19;20018;-71
2022/08/13 01:44:31;;;;;;;6.95;4.68;;;20.80;96.90;;;;;;3059267;19;20020;-71
2022/08/13 01:45:36;;;;;;;6.65;3.92;;;20.70;96.80;;;;;;3059355;19;20011;-71
2022/08/13 01:50:31;;;;;;;7.65;4.18;;;20.70;96.60;;;;;;3059025;19;20074;-71
2022/08/13 01:51:37;;;;;;;6.78;3.65;;;20.70;96.80;;;;;;3059422;19;20010;-71
2022/08/13 01:52:40;;;;;;;7.30;3.60;;;20.80;96.90;;;;;;3059150;19;20018;-70
2022/08/13 01:53:49;;;;;;;5.70;3.72;;;20.60;96.70;;;;;;3059215;19;20006;-70
2022/08/13 01:54:51;;;;;;;9.30;3.92;;;20.80;96.80;;;;;;3059203;19;20003;-70
2022/08/13 01:55:58;;;;;;;5.95;4.07;;;20.70;96.70;;;;;;3058866;19;20023;-70
2022/08/13 01:57:00;;;;;;;4.60;3.92;;;20.70;96.80;;;;;;3059410;19;20014;-70
2022/08/13 01:58:04;;;;;;;6.65;4.00;;;20.90;96.70;;;;;;3059207;19;20476;-71
2022/08/13 01:59:05;;;;;;;6.43;4.18;;;20.80;96.60;;;;;;3058439;19;20031;-71
2022/08/13 02:00:13;;;;;;;6.03;4.40;;;20.90;96.60;;;;;;3059201;19;20014;-71
2022/08/13 02:01:17;;;;;;;5.00;3.50;;;20.80;96.40;;;;;;3058911;19;20700;-71
2022/08/13 02:02:23;;;;;;;6.15;3.80;;;20.70;96.60;;;;;;3059095;19;20386;-71
2022/08/13 02:03:25;;;;;;;8.02;3.80;;;20.80;96.60;;;;;;3058793;19;20014;-71
2022/08/13 02:04:29;;;;;;;5.53;4.00;;;20.80;96.50;;;;;;3059116;19;20011;-72
2022/08/13 02:05:31;;;;;;;8.30;4.15;;;20.90;96.60;;;;;;3058808;19;20374;-71
2022/08/13 02:06:36;;;;;;;5.10;4.03;;;20.60;96.60;;;;;;3059118;19;20018;-71
2022/08/13 02:07:38;;;;;;;7.15;4.20;;;20.70;96.70;;;;;;3057443;19;20381;-72
2022/08/13 02:08:47;;;;;;;7.75;4.10;;;20.70;96.70;;;;;;3059147;19;20427;-71
2022/08/13 02:09:48;;;;;;;7.03;3.90;;;20.70;96.70;;;;;;3058871;19;20010;-72
2022/08/13 02:10:54;;;;;;;7.53;4.07;;;20.60;96.80;;;;;;3058896;19;20478;-71
2022/08/13 02:11:56;;;;;;;6.28;4.22;;;20.70;96.80;;;;;;3058691;19;20542;-71
2022/08/13 02:13:00;;;;;;;6.85;3.88;;;20.70;96.70;;;;;;3058968;19;20010;-71
2022/08/13 02:14:03;;;;;;;5.85;3.80;;;20.60;96.80;;;;;;3058816;19;20014;-71
2022/08/13 02:15:08;;;;;;;8.43;3.97;;;20.60;96.80;;;;;;3059077;19;20020;-70
2022/08/13 02:16:10;;;;;;;4.57;3.80;;;20.60;96.80;;;;;;3058911;19;20066;-71
2022/08/13 02:18:31;;;;;;;8.80;4.28;;;20.50;96.90;;;;;;3058652;19;20007;-71
2022/08/13 02:19:34;;;;;;;5.32;3.78;;;20.70;96.90;;;;;;3059190;19;20013;-70
2022/08/13 02:20:39;;;;;;;7.10;4.43;;;20.60;96.90;;;;;;3058829;19;20006;-71
2022/08/13 02:21:44;;;;;;;8.85;4.47;;;20.60;96.80;;;;;;3058779;19;20010;-71
2022/08/13 02:22:49;;;;;;;6.93;4.32;;;20.50;96.90;;;;;;3058881;19;20021;-70
2022/08/13 02:23:56;;;;;;;5.47;3.78;;;20.50;96.90;;;;;;3058562;19;20011;-70
2022/08/13 02:25:01;;;;;;;7.50;4.13;;;20.40;97.00;;;;;;3058201;19;20003;-71
2022/08/13 02:26:05;;;;;;;6.40;4.45;;;20.40;97.10;;;;;;3058251;19;20015;-71
2022/08/13 02:27:11;;;;;;;6.60;4.20;;;20.40;97.00;;;;;;3058836;19;20502;-71
2022/08/13 02:28:14;;;;;;;5.90;4.28;;;20.40;97.10;;;;;;3058502;19;20488;-71
2022/08/13 02:29:18;;;;;;;7.75;4.45;;;20.50;97.20;;;;;;3058946;19;20352;-71
2022/08/13 02:30:19;;;;;;;7.22;4.22;;;20.50;97.10;;;;;;3058600;19;20013;-71
2022/08/13 02:31:23;;;;;;;7.07;4.60;;;20.50;97.20;;;;;;3058820;19;20480;-71
2022/08/13 02:32:25;;;;;;;7.43;4.30;;;20.40;97.20;;;;;;3058405;19;20006;-71
2022/08/13 02:33:29;;;;;;;6.68;4.07;;;20.30;97.30;;;;;;3059003;19;20003;-71
2022/08/13 02:34:31;;;;;;;7.25;4.30;;;20.50;97.40;;;;;;3058419;19;20002;-71
2022/08/13 02:35:36;;;;;;;6.93;4.20;;;20.20;97.40;;;;;;3058550;19;20094;-72
2022/08/13 02:36:40;;;;;;;6.55;4.20;;;20.20;97.50;;;;;;3058402;19;20593;-70
2022/08/13 02:37:44;;;;;;;10.07;4.25;;;20.50;97.50;;;;;;3058575;19;20014;-70
2022/08/13 02:38:46;;;;;;;4.90;4.07;;;20.40;97.40;;;;;;3058170;19;20361;-70
2022/08/13 02:39:54;;;;;;;8.63;4.25;;;20.30;97.30;;;;;;3058694;19;20011;-71
2022/08/13 02:42:12;;;;;;;5.82;4.18;;;20.30;97.00;;;;;;3058686;19;20006;-71
2022/08/13 02:43:13;;;;;;;5.57;4.20;;;20.40;97.10;;;;;;3058358;19;20030;-71
2022/08/13 02:44:19;;;;;;;6.80;3.83;;;20.20;97.10;;;;;;3058529;19;20010;-71
2022/08/13 02:45:21;;;;;;;7.15;4.47;;;20.30;97.00;;;;;;3058419;19;20007;-71
2022/08/13 02:46:25;;;;;;;5.32;4.80;;;20.50;97.10;;;;;;3058493;19;20650;-71
2022/08/13 02:47:32;;;;;;;6.57;4.53;;;20.30;97.00;;;;;;3058534;19;20025;-71
2022/08/13 02:48:36;;;;;;;8.52;4.80;;;20.10;96.90;;;;;;3058295;19;20007;-71
2022/08/13 02:49:38;;;;;;;6.60;4.20;;;20.30;96.90;;;;;;3058281;19;20488;-71
2022/08/13 02:50:45;;;;;;;8.68;4.55;;;20.20;96.90;;;;;;3058420;19;20010;-71
2022/08/13 02:51:47;;;;;;;6.03;4.65;;;20.30;97.00;;;;;;3058304;19;20469;-71
2022/08/13 02:52:51;;;;;;;7.75;4.05;;;20.30;97.00;;;;;;3058662;19;20021;-71
2022/08/13 02:53:53;;;;;;;6.32;4.30;;;20.30;96.90;;;;;;3058456;19;20070;-71
2022/08/13 02:54:59;;;;;;;6.95;4.63;;;20.20;96.90;;;;;;3058325;19;20045;-71
2022/08/13 02:56:01;;;;;;;6.68;4.22;;;20.30;96.90;;;;;;3057859;19;20018;-71
2022/08/13 02:57:05;;;;;;;8.98;4.38;;;20.20;96.90;;;;;;3058405;19;20010;-71
2022/08/13 02:58:07;;;;;;;8.10;4.63;;;20.30;97.00;;;;;;3058279;19;20014;-70
2022/08/13 02:59:10;;;;;;;5.57;4.65;;;20.10;96.90;;;;;;3057875;19;20010;-71
2022/08/13 03:00:13;;;;;;;6.97;4.55;;;20.10;96.90;;;;;;3058362;19;20010;-71
2022/08/13 03:01:17;;;;;;;6.45;4.53;;;20.20;96.90;;;;;;3058225;19;20010;-71
2022/08/13 03:02:20;;;;;;;6.88;3.97;;;20.00;96.80;;;;;;3058296;19;20019;-71
2022/08/13 03:03:26;;;;;;;6.95;4.32;;;20.20;97.00;;;;;;3058245;19;20068;-71
2022/08/13 03:04:27;;;;;;;6.40;4.20;;;20.20;97.00;;;;;;3058577;19;20024;-71
2022/08/13 03:05:31;;;;;;;5.28;4.13;;;20.10;96.90;;;;;;3058311;19;20488;-71
2022/08/13 03:06:33;;;;;;;5.05;3.92;;;20.00;97.00;;;;;;3058394;19;20106;-71
2022/08/13 03:07:41;;;;;;;6.78;3.95;;;20.00;97.00;;;;;;3058150;19;20034;-71
2022/08/13 03:08:42;;;;;;;7.00;4.68;;;20.00;96.90;;;;;;3058126;19;20108;-70
2022/08/13 03:09:46;;;;;;;4.97;4.22;;;20.00;96.90;;;;;;3058307;19;20006;-70
2022/08/13 03:10:53;;;;;;;8.68;4.47;;;20.10;96.90;;;;;;3058385;19;20015;-71
2022/08/13 03:12:00;;;;;;;7.75;4.32;;;20.20;96.90;;;;;;3057649;19;20039;-71
2022/08/13 03:13:04;;;;;;;6.15;4.55;;;19.90;96.80;;;;;;3058151;19;20026;-73
2022/08/13 03:14:10;;;;;;;5.07;4.22;;;20.00;97.00;;;;;;3057984;19;20010;-70
2022/08/13 03:15:14;;;;;;;6.68;4.57;;;19.90;96.90;;;;;;3058406;19;20006;-71
2022/08/13 03:16:21;;;;;;;7.80;4.40;;;19.90;97.00;;;;;;3058100;19;20022;-71
2022/08/13 03:17:22;;;;;;;7.60;4.38;;;20.10;97.00;;;;;;3058077;19;20014;-71
2022/08/13 03:18:27;;;;;;;6.15;4.40;;;19.70;96.90;;;;;;3058272;19;20565;-71
2022/08/13 03:19:28;;;;;;;5.10;4.30;;;20.00;97.00;;;;;;3059168;19;20073;-71
2022/08/13 03:20:33;;;;;;;8.30;4.40;;;20.00;97.00;;;;;;3061427;19;20006;-71
2022/08/13 03:21:36;;;;;;;7.32;4.50;;;19.80;97.00;;;;;;3061275;19;20354;-71
2022/08/13 03:22:54;;;;;;;6.63;4.45;;;20.10;97.10;;;;;;3061268;19;20413;-70
2022/08/13 03:23:55;;;;;;;6.03;4.13;;;19.90;96.60;;;;;;3061377;19;20014;-71
2022/08/13 03:25:00;;;;;;;5.88;4.32;;;20.00;96.90;;;;;;3060430;19;20007;-71
2022/08/13 03:26:04;;;;;;;6.80;4.28;;;19.90;97.00;;;;;;3060927;19;20471;-71
2022/08/13 03:27:10;;;;;;;6.65;4.53;;;19.90;97.30;;;;;;3061242;19;20026;-71
2022/08/13 03:28:12;;;;;;;6.82;4.50;;;19.70;96.90;;;;;;3061208;19;20007;-71
2022/08/13 03:29:18;;;;;;;5.78;4.70;;;19.80;96.90;;;;;;3061262;19;20007;-71
2022/08/13 03:30:21;;;;;;;5.50;4.90;;;19.80;97.00;;;;;;3061109;19;20003;-70
2022/08/13 03:31:27;;;;;;;7.22;4.72;;;19.90;97.10;;;;;;3061024;19;20469;-70
2022/08/13 03:32:30;;;;;;;5.57;4.20;;;19.80;97.00;;;;;;3061291;19;20006;-70
2022/08/13 03:33:35;;;;;;;5.88;4.35;;;19.90;97.10;;;;;;3061242;19;20031;-71
2022/08/13 03:34:36;;;;;;;6.32;4.13;;;19.70;97.40;;;;;;3061059;19;20010;-71
2022/08/13 03:35:41;;;;;;;5.72;4.47;;;19.70;97.10;;;;;;3061175;19;20022;-71
2022/08/13 03:36:44;;;;;;;9.77;4.85;;;19.90;97.20;;;;;;3061101;19;20522;-71
2022/08/13 03:37:47;;;;;;;8.05;4.70;;;19.60;97.10;;;;;;3061241;19;19998;-71
2022/08/13 03:38:51;;;;;;;6.03;4.75;;;19.80;97.10;;;;;;3060828;19;20017;-71
2022/08/13 03:39:53;;;;;;;4.95;4.45;;;19.80;97.10;;;;;;3060185;19;20070;-71
2022/08/13 03:41:11;;;;;;;5.68;4.70;;;19.90;97.20;;;;;;3060741;19;20462;-71
2022/08/13 03:42:15;;;;;;;6.38;4.53;;;19.70;97.30;;;;;;3061059;19;20476;-70
2022/08/13 03:43:20;;;;;;;7.40;4.50;;;19.60;97.40;;;;;;3060878;19;20006;-71
2022/08/13 03:44:21;;;;;;;6.85;4.65;;;19.60;97.40;;;;;;3061036;19;19999;-71
2022/08/13 03:45:26;;;;;;;;;;;19.60;97.40;;;;;;3061613;19;20031;-71
2022/08/13 03:46:28;;;;;;;6.97;4.47;;;19.60;97.70;;;;;;3061069;19;20019;-71
2022/08/13 03:47:32;;;;;;;7.25;4.53;;;19.50;97.60;;;;;;3060885;19;20026;-72
2022/08/13 03:48:33;;;;;;;6.32;4.47;;;19.50;97.70;;;;;;3061022;19;20112;-71
2022/08/13 03:49:37;;;;;;;5.63;4.40;;;19.60;97.70;;;;;;3060757;19;20517;-70
2022/08/13 03:50:39;;;;;;;7.20;4.43;;;19.30;97.70;;;;;;3061129;19;20492;-71
2022/08/13 03:51:43;;;;;;;8.30;4.63;;;19.40;97.60;;;;;;3060803;19;20017;-71
2022/08/13 03:52:45;;;;;;;7.45;4.85;;;19.60;97.60;;;;;;3061149;19;20031;-71
2022/08/13 03:53:49;;;;;;;7.70;4.72;;;19.50;97.60;;;;;;3060783;19;20018;-71
2022/08/13 03:54:51;;;;;;;6.65;4.45;;;19.40;97.60;;;;;;3060676;19;20495;-71
2022/08/13 03:55:55;;;;;;;7.07;4.47;;;19.50;97.50;;;;;;3060331;19;20025;-71
2022/08/13 03:56:57;;;;;;;7.60;4.43;;;19.50;97.50;;;;;;3060924;19;20070;-71
2022/08/13 03:58:04;;;;;;;6.82;4.88;;;19.70;97.60;;;;;;3060803;19;20018;-71
2022/08/13 03:59:09;;;;;;;8.32;5.00;;;19.80;97.60;;;;;;3061023;19;20011;-71
2022/08/13 04:00:15;;;;;;;7.15;4.50;;;19.50;97.50;;;;;;3059636;19;20563;-71
2022/08/13 04:01:19;;;;;;;7.13;4.90;;;19.50;97.40;;;;;;3060709;19;20011;-71
2022/08/13 04:02:21;;;;;;;6.28;4.53;;;19.70;97.50;;;;;;3060669;19;20396;-70
2022/08/13 04:03:28;;;;;;;7.15;4.80;;;19.40;97.50;;;;;;3060924;19;20002;-71
2022/08/13 04:04:29;;;;;;;7.15;4.85;;;19.50;97.50;;;;;;3060637;19;20010;-71
2022/08/13 04:05:33;;;;;;;5.93;4.40;;;19.50;97.60;;;;;;3060736;19;20003;-71
2022/08/13 04:06:38;;;;;;;6.35;4.75;;;19.40;97.60;;;;;;3060597;19;20503;-71
2022/08/13 04:07:39;;;;;;;7.63;4.85;;;19.50;97.80;;;;;;3060644;19;20019;-71
2022/08/13 04:08:45;;;;;;;9.23;4.72;;;19.30;97.80;;;;;;3060722;19;20039;-71
2022/08/13 04:09:46;;;;;;;8.82;5.00;;;19.40;97.70;;;;;;3060578;19;20430;-71
2022/08/13 04:10:50;;;;;;;;;;;19.30;97.60;;;;;;3061063;19;20015;-71
2022/08/13 04:11:52;;;;;;;5.75;4.40;;;19.40;97.80;;;;;;3060206;19;19919;-71
2022/08/13 04:12:56;;;;;;;6.55;4.50;;;19.30;97.70;;;;;;3060538;19;20036;-71
2022/08/13 04:14:03;;;;;;;6.78;4.40;;;19.30;97.70;;;;;;3060943;19;20014;-71
2022/08/13 04:15:06;;;;;;;7.15;4.32;;;19.20;98.10;;;;;;3060464;19;20014;-71
2022/08/13 04:16:12;;;;;;;6.57;4.20;;;19.20;97.70;;;;;;3060574;19;20011;-71
2022/08/13 04:17:16;;;;;;;6.20;4.45;;;19.30;98.00;;;;;;3060513;19;20011;-71
2022/08/13 04:18:17;;;;;;;6.18;4.80;;;19.20;98.10;;;;;;3060298;19;20484;-71
2022/08/13 04:19:21;;;;;;;7.47;4.30;;;19.20;98.10;;;;;;3062066;19;20010;-71
2022/08/13 04:20:23;;;;;;;5.68;4.60;;;19.10;98.10;;;;;;3060537;19;20026;-71
2022/08/13 04:21:31;;;;;;;9.02;4.57;;;19.30;98.10;;;;;;3060418;19;20014;-71
2022/08/13 04:22:33;;;;;;;7.05;4.32;;;19.40;98.20;;;;;;3060330;19;20348;-71
2022/08/13 04:23:39;;;;;;;6.35;4.43;;;19.00;98.10;;;;;;3060631;19;20011;-70
2022/08/13 04:24:40;;;;;;;5.63;4.43;;;19.10;98.10;;;;;;3059858;19;20057;-71
2022/08/13 04:25:46;;;;;;;6.65;4.47;;;19.10;98.10;;;;;;3059943;19;20375;-71
2022/08/13 04:26:47;;;;;;;8.05;4.88;;;19.30;98.10;;;;;;3060259;19;20082;-70
2022/08/13 04:27:51;;;;;;;8.30;4.55;;;19.20;98.00;;;;;;3060421;19;20341;-70
2022/08/13 04:28:53;;;;;;;5.38;3.72;;;19.00;98.00;;;;;;3060170;19;20014;-71
2022/08/13 04:30:00;;;;;;;5.93;3.63;;;19.10;98.00;;;;;;3060460;19;20007;-71
2022/08/13 04:31:02;;;;;;;8.10;5.05;;;19.10;98.00;;;;;;3059632;19;20014;-71
2022/08/13 04:32:05;;;;;;;;;;;19.10;98.00;;;;;;3061223;19;20018;-70
2022/08/13 04:33:09;;;;;;;7.15;4.38;;;19.20;98.10;;;;;;3060116;19;19915;-71
2022/08/13 04:34:13;;;;;;;6.05;3.85;;;19.10;98.10;;;;;;3060392;19;20219;-71
2022/08/13 04:35:15;;;;;;;6.43;4.32;;;19.00;98.10;;;;;;3060083;19;20017;-71
2022/08/13 04:36:19;;;;;;;6.90;4.40;;;19.20;98.10;;;;;;3060226;19;20011;-70
2022/08/13 04:37:22;;;;;;;7.95;4.28;;;19.00;98.10;;;;;;3060120;19;20006;-70
2022/08/13 04:38:26;;;;;;;7.65;4.60;;;18.90;98.10;;;;;;3060263;19;20025;-72
2022/08/13 04:39:28;;;;;;;6.88;4.38;;;19.00;98.10;;;;;;3060218;19;20013;-70
2022/08/13 04:40:31;;;;;;;7.85;4.30;;;19.20;98.00;;;;;;3060287;19;20014;-71
2022/08/13 04:41:33;;;;;;;8.63;4.22;;;19.10;98.00;;;;;;3060020;19;20444;-71
2022/08/13 04:42:52;;;;;;;8.02;4.95;;;19.10;98.00;;;;;;3060193;19;20011;-70
2022/08/13 04:43:54;;;;;;;7.22;4.20;;;19.20;98.20;;;;;;3060135;19;20019;-71
2022/08/13 04:45:00;;;;;;;7.53;3.92;;;19.20;98.00;;;;;;3060292;19;20014;-71
2022/08/13 04:46:01;;;;;;;6.03;4.50;;;19.10;98.00;;;;;;3060115;19;20018;-71
2022/08/13 04:47:06;;;;;;;5.20;4.28;;;18.90;97.90;;;;;;3060236;19;20460;-70
2022/08/13 04:48:12;;;;;;;8.68;4.70;;;19.00;97.90;;;;;;3060070;19;20031;-70
2022/08/13 04:49:16;;;;;;;7.93;4.85;;;19.10;98.10;;;;;;3060157;19;20061;-70
2022/08/13 04:50:18;;;;;;;7.60;4.25;;;19.10;98.00;;;;;;3060051;19;20377;-70
2022/08/13 04:51:23;;;;;;;8.02;4.50;;;19.10;98.10;;;;;;3059908;19;20014;-70
2022/08/13 04:52:24;;;;;;;6.88;4.40;;;17.90;97.80;;;;;;3059895;19;20633;-71
2022/08/13 04:53:29;;;;;;;5.35;4.55;;;19.00;98.10;;;;;;3060049;19;20082;-72
2022/08/13 04:54:31;;;;;;;5.43;4.55;;;19.20;98.10;;;;;;3060149;19;20046;-71
2022/08/13 04:55:36;;;;;;;8.48;4.07;;;19.20;98.20;;;;;;3059721;19;20006;-71
2022/08/13 04:56:37;;;;;;;6.93;4.53;;;19.10;98.20;;;;;;3060159;19;20014;-72
2022/08/13 04:57:42;;;;;;;10.35;4.47;;;18.90;98.10;;;;;;3060223;19;20374;-71
2022/08/13 04:58:46;;;;;;;6.95;4.07;;;19.10;98.20;;;;;;3059778;19;20018;-71
2022/08/13 04:59:48;;;;;;;5.40;4.72;;;19.00;98.10;;;;;;3059744;19;20003;-71
2022/08/13 05:00:56;;;;;;;6.75;4.30;;;19.30;98.20;;;;;;3059761;19;20014;-71
2022/08/13 05:01:57;;;;;;;7.32;3.90;;;19.10;98.20;;;;;;3060090;19;20018;-70
2022/08/13 05:03:10;;;;;;;7.30;4.30;;;19.10;98.20;;;;;;3059867;19;20589;-71
2022/08/13 05:04:11;;;;;;;6.88;4.40;;;19.20;98.30;;;;;;3059841;19;20011;-71
2022/08/13 05:05:16;;;;;;;7.10;4.30;;;19.00;98.10;;;;;;3059742;19;20014;-70
2022/08/13 05:06:19;;;;;;;7.38;4.63;;;19.00;98.10;;;;;;3059767;19;20018;-71
2022/08/13 05:07:23;;;;;;;5.35;4.20;;;19.20;98.10;;;;;;3060039;19;20387;-71
2022/08/13 05:08:27;;;;;;;4.80;4.10;;;19.10;98.20;;;;;;3059649;19;20014;-71
2022/08/13 05:09:29;;;;;;;6.38;4.35;;;19.00;98.20;;;;;;3059759;19;20352;-71
2022/08/13 05:10:36;;;;;;;8.32;4.68;;;19.10;98.30;;;;;;3059447;19;20081;-71
2022/08/13 05:11:37;;;;;;;8.70;4.68;;;19.10;98.40;;;;;;3059678;19;20014;-71
2022/08/13 05:12:41;;;;;;;6.85;4.10;;;19.10;98.40;;;;;;3059715;19;20011;-71
2022/08/13 05:13:45;;;;;;;6.50;4.50;;;19.10;98.40;;;;;;3060031;19;20460;-71
2022/08/13 05:14:46;;;;;;;7.95;4.43;;;19.10;98.40;;;;;;3059832;19;20002;-71
2022/08/13 05:15:50;;;;;;;5.03;4.05;;;19.20;98.30;;;;;;3059792;19;20033;-72
2022/08/13 05:16:58;;;;;;;8.07;4.15;;;19.20;98.40;;;;;;3059561;19;20349;-71
2022/08/13 05:17:59;;;;;;;6.10;4.18;;;19.10;98.50;;;;;;3059571;19;20010;-71
2022/08/13 05:19:04;;;;;;;7.22;4.50;;;19.10;98.30;;;;;;3059458;19;20039;-71
2022/08/13 05:20:09;;;;;;;6.10;4.20;;;19.20;98.20;;;;;;3059315;19;20006;-71
2022/08/13 05:21:14;;;;;;;9.10;4.47;;;19.20;98.20;;;;;;3059475;19;20480;-71
2022/08/13 05:22:15;;;;;;;6.22;4.15;;;19.00;98.20;;;;;;3059705;19;20011;-71
2022/08/13 05:23:19;;;;;;;5.85;4.38;;;19.30;98.20;;;;;;3059439;19;20014;-71
2022/08/13 05:24:22;;;;;;;7.03;4.07;;;19.30;98.30;;;;;;3059414;19;20476;-71
2022/08/13 05:25:25;;;;;;;6.18;4.50;;;19.20;98.20;;;;;;3059060;19;20842;-70
2022/08/13 05:26:31;;;;;;;5.55;4.53;;;19.00;98.10;;;;;;3059680;19;19998;-71
2022/08/13 05:27:35;;;;;;;5.93;4.15;;;19.20;98.20;;;;;;3059382;19;20018;-71
2022/08/13 05:28:37;;;;;;;6.05;4.10;;;19.30;98.20;;;;;;3059759;19;20018;-71
2022/08/13 05:29:41;;;;;;;7.90;4.22;;;19.30;98.20;;;;;;3059623;19;20028;-71
2022/08/13 05:30:43;;;;;;;7.22;4.40;;;19.30;98.30;;;;;;3059445;19;20019;-70
2022/08/13 05:31:51;;;;;;;5.65;3.80;;;19.20;98.20;;;;;;3059546;19;20090;-71
2022/08/13 05:32:57;;;;;;;9.68;4.60;;;19.10;98.20;;;;;;3059483;19;20467;-71
2022/08/13 05:34:03;;;;;;;5.68;4.38;;;19.30;98.30;;;;;;3059433;19;20073;-71
2022/08/13 05:35:10;;;;;;;7.28;4.55;;;19.20;98.30;;;;;;3059695;19;20034;-71
2022/08/13 05:36:13;;;;;;;6.20;4.47;;;19.20;98.20;;;;;;3058396;19;20085;-71
2022/08/13 05:37:17;;;;;;;7.03;4.25;;;19.20;98.50;;;;;;3058823;19;20018;-71
2022/08/13 05:38:22;;;;;;;5.32;4.05;;;19.20;98.50;;;;;;3059411;19;20010;-71
2022/08/13 05:39:26;;;;;;;7.80;4.28;;;19.10;98.50;;;;;;3059550;19;20010;-71
2022/08/13 05:40:27;;;;;;;7.38;4.35;;;19.30;98.60;;;;;;3058726;19;20014;-71
2022/08/13 05:41:31;;;;;;;5.95;4.05;;;19.20;98.60;;;;;;3059634;19;20027;-71
2022/08/13 05:42:39;;;;;;;6.65;4.43;;;19.30;98.60;;;;;;3057307;19;20015;-71
2022/08/13 05:43:43;;;;;;;4.65;3.88;;;19.10;98.70;;;;;;3059274;19;20078;-71
2022/08/13 05:44:47;;;;;;;5.55;4.13;;;19.30;98.70;;;;;;3059435;19;20018;-71